N172LF KGSO-KCLT
Flight info
| Callsign | N172LF |
|---|---|
| Flight time | N/A |
| Altitude | VFR/055 |
| Route | |
| Aircraft | BE36/L-DOV/C |
Departure
| Time | 2026-05-08 15:58 |
|---|---|
| Airport | Piedmont Triad International Airport (KGSO) |
Arrival
| Time | N/A |
|---|---|
| Airport | Charlotte Douglas International Airport (KCLT) |
| Time | Latitude | Longitude | Altitude | Speed | Heading |
|---|---|---|---|---|---|
| 2026-05-08 15:44 | 36.09876 | -79.94578 | 921 ft | 0 kts | 119° |
| 2026-05-08 15:52 | 36.09854 | -79.94547 | 919 ft | 13 kts | 137° |
| 2026-05-08 15:53 | 36.09777 | -79.94515 | 916 ft | 9 kts | 212° |
| 2026-05-08 15:53 | 36.09747 | -79.94553 | 917 ft | 4 kts | 227° |
| 2026-05-08 15:53 | 36.09732 | -79.94570 | 917 ft | 2 kts | 222° |
| 2026-05-08 15:53 | 36.09688 | -79.94601 | 917 ft | 15 kts | 170° |
| 2026-05-08 15:54 | 36.09593 | -79.94498 | 911 ft | 20 kts | 136° |
| 2026-05-08 15:54 | 36.09495 | -79.94380 | 905 ft | 18 kts | 142° |
| 2026-05-08 15:54 | 36.09398 | -79.94413 | 903 ft | 16 kts | 228° |
| 2026-05-08 15:54 | 36.09316 | -79.94520 | 904 ft | 18 kts | 226° |
| 2026-05-08 15:55 | 36.09218 | -79.94530 | 902 ft | 11 kts | 136° |
| 2026-05-08 15:55 | 36.09214 | -79.94526 | 902 ft | 0 kts | 135° |
| 2026-05-08 15:56 | 36.09202 | -79.94510 | 901 ft | 4 kts | 134° |
| 2026-05-08 15:56 | 36.09198 | -79.94506 | 901 ft | 0 kts | 134° |
| 2026-05-08 15:56 | 36.09163 | -79.94466 | 899 ft | 15 kts | 137° |
| 2026-05-08 15:57 | 36.09151 | -79.94405 | 898 ft | 0 kts | 48° |
| 2026-05-08 15:57 | 36.09295 | -79.94221 | 900 ft | 72 kts | 46° |
| 2026-05-08 15:58 | 36.09768 | -79.93640 | 1096 ft | 109 kts | 46° |
| 2026-05-08 15:58 | 36.10330 | -79.92892 | 1444 ft | 127 kts | 47° |
| 2026-05-08 15:58 | 36.10970 | -79.92061 | 1828 ft | 141 kts | 45° |
| 2026-05-08 15:58 | 36.11760 | -79.91421 | 2443 ft | 131 kts | 18° |
| 2026-05-08 15:59 | 36.12704 | -79.91104 | 2491 ft | 158 kts | 11° |
| 2026-05-08 15:59 | 36.13789 | -79.90940 | 2758 ft | 156 kts | 2° |
| 2026-05-08 15:59 | 36.14859 | -79.90927 | 2980 ft | 158 kts | 359° |
| 2026-05-08 15:59 | 36.15874 | -79.91131 | 3610 ft | 129 kts | 353° |
| 2026-05-08 16:00 | 36.16717 | -79.91326 | 4033 ft | 131 kts | 351° |
| 2026-05-08 16:00 | 36.17696 | -79.91538 | 3970 ft | 153 kts | 354° |
| 2026-05-08 16:00 | 36.18804 | -79.91718 | 3790 ft | 172 kts | 355° |
| 2026-05-08 16:00 | 36.20046 | -79.91900 | 3575 ft | 185 kts | 355° |
| 2026-05-08 16:01 | 36.21342 | -79.92064 | 3387 ft | 190 kts | 356° |
| 2026-05-08 16:01 | 36.22654 | -79.92283 | 3123 ft | 191 kts | 352° |
| 2026-05-08 16:01 | 36.23954 | -79.92543 | 3080 ft | 186 kts | 354° |
| 2026-05-08 16:01 | 36.25241 | -79.92724 | 2991 ft | 186 kts | 355° |
| 2026-05-08 16:02 | 36.26501 | -79.92884 | 2936 ft | 181 kts | 355° |
| 2026-05-08 16:02 | 36.27687 | -79.93342 | 2981 ft | 177 kts | 336° |
| 2026-05-08 16:02 | 36.28800 | -79.93949 | 3001 ft | 173 kts | 338° |
| 2026-05-08 16:02 | 36.29917 | -79.94532 | 3003 ft | 174 kts | 338° |
| 2026-05-08 16:03 | 36.30767 | -79.95572 | 2979 ft | 177 kts | 295° |
| 2026-05-08 16:03 | 36.30787 | -79.97051 | 2991 ft | 177 kts | 250° |
| 2026-05-08 16:03 | 36.30215 | -79.98396 | 2983 ft | 175 kts | 241° |
| 2026-05-08 16:03 | 36.29610 | -79.99703 | 2978 ft | 174 kts | 232° |
| 2026-05-08 16:04 | 36.28690 | -80.00679 | 3002 ft | 176 kts | 213° |
| 2026-05-08 16:04 | 36.27672 | -80.01571 | 2974 ft | 180 kts | 216° |
| 2026-05-08 16:04 | 36.26667 | -80.02482 | 2978 ft | 179 kts | 215° |
| 2026-05-08 16:04 | 36.25658 | -80.03381 | 2980 ft | 179 kts | 215° |
| 2026-05-08 16:05 | 36.25306 | -80.03697 | 2983 ft | 179 kts | 215° |